Weather observations for the past three days for
Boone Municipal
Imperial (Metric)
Date Time (cdt) Wind (mph) Vis. (mi.) Weather Sky Cond. Temperature (ºF) Relative Humidity Wind Chill (°F) Heat Index (°F) Pressure Precipitation (in)
Air Dwpt 6 hour altimeter (in) sea level (mb) 1 hr 3 hr 6 hr
Max. Min.
05 22:55 E 7 10.00 NULL NULL 75.2 75.2 100% 73 30 0.0
05 22:35 E 7 10.00 NULL NULL 77 77 100% 78 29.99 0.0
05 22:15 E 6 10.00 NULL NULL 77 77 100% 78 29.99 0.0
05 21:55 E 7 10.00 NULL NULL 77 77 100% 78 29.98 0.0
05 21:35 E 7 10.00 Fair CLR 77 77 100% 78 29.98 0.0
05 21:15 E 8 10.00 NULL NULL 78.8 77 94% 83 29.97 0.0
05 20:55 E 8 10.00 NULL NULL 78.8 77 94% 83 29.96 0.0
05 20:35 E 7 10.00 NULL NULL 78.8 77 94% 83 29.96 0.0
05 20:15 E 7 10.00 NULL NULL 78.8 77 94% 83 29.96 0.0
05 19:55 E 7 10.00 Fair CLR 80.6 78.8 94% 88 29.95 0.0
05 19:35 E 6 10.00 Fair CLR 82.4 77 84% 91 29.95 0.0
05 19:15 E 8 10.00 Fair CLR 84.2 77 79% 94 29.95 0.0
05 18:55 E 8 10.00 Fair CLR 86 77 75% 97 29.95 0.0
05 18:35 E 9 10.00 Fair CLR 86 77 75% 97 29.95 0.0
05 18:15 SE 13 10.00 Fair CLR 87.8 77 70% 100 29.94 0.0
05 17:55 E 13 10.00 A Few Clouds FEW029 87.8 77 70% 100 29.94 0.0
05 17:35 SE 10 10.00 A Few Clouds FEW029 87.8 77 70% 100 29.94 0.0
05 17:15 SE 10 10.00 A Few Clouds FEW027 87.8 77 70% 100 29.94 0.0
05 16:55 E 10 10.00 Fair CLR 86 77 75% 97 29.94 0.0
05 16:35 E 10 10.00 A Few Clouds FEW028 86 78.8 79% 99 29.95 0.0
05 16:15 E 9 10.00 A Few Clouds FEW027 86 77 75% 97 29.95 0.0
05 15:55 E 9 10.00 Partly Cloudy SCT026 SCT033 87.8 77 70% 100 29.95 0.0
05 15:35 SE 8 G 14 10.00 Mostly Cloudy SCT023 BKN027 86 78.8 79% 99 29.95 0.0
05 15:15 SE 9 G 15 10.00 Partly Cloudy SCT021 86 78.8 79% 99 29.95 0.0
05 14:55 E 14 10.00 Fair CLR 86 78.8 79% 99 29.96 0.0
05 12:55 NE 9 10.00 Fair CLR 80.6 77 89% 87 30.01 0.0
05 12:35 NE 10 10.00 Fair CLR 78.8 77 94% 83 30 0.0
05 12:15 NE 10 G 18 10.00 A Few Clouds FEW022 FEW027 FEW040 78.8 77 94% 83 30 0.0
05 11:55 N 10 G 23 5.00 Light Rain FEW015 SCT021 BKN025 78.8 77 94% 83 30.01 0.0
05 11:35 NW 20 9.00 Mostly Cloudy BKN015 BKN023 BKN033 78.8 75.2 89% 82 30.02 0.0
05 11:15 N 7 10.00 Partly Cloudy SCT047 SCT055 82.4 78.8 89% 92 30.01 0.0
05 10:55 NE 6 10.00 Partly Cloudy SCT049 82.4 78.8 89% 92 30 0.0
05 10:35 N 5 10.00 A Few Clouds FEW050 80.6 78.8 94% 88 30 0.0
05 10:15 NE 3 10.00 A Few Clouds FEW050 80.6 78.8 94% 88 29.99 0.0
05 09:55 NE 7 0.00 NULL NULL 80.6 78.8 94% 88 29.98 0.0
05 09:35 NE 5 9.00 Fair CLR 80.6 78.8 94% 88 29.98 0.0
05 09:15 N 3 9.00 Fair CLR 78.8 78.8 100% 83 29.98 0.0
05 08:55 NE 3 7.00 Fair CLR 77 77 100% 78 29.97 0.0
05 08:35 NE 5 7.00 Fair CLR 78.8 78.8 100% 83 29.96 0.0
05 08:15 Calm 8.00 Fair CLR 77 77 100% 78 29.95 0.0
05 07:55 Calm 7.00 Fair CLR 77 77 100% 78 29.94 0.0
05 07:35 Calm 6.00 Fog/Mist CLR 75.2 75.2 100% 73 29.94 0.0
05 07:15 SE 3 6.00 Fog/Mist SCT050 75.2 75.2 100% 73 29.94 0.0
05 06:55 Calm 7.00 Overcast OVC050 73.4 73.4 100% 29.93 0.0
05 06:35 Calm 6.00 Fog/Mist BKN050 73.4 73.4 100% 29.93 0.0
05 06:15 E 3 6.00 Fog/Mist SCT049 73.4 73.4 100% 29.92 0.0
05 05:55 Calm 6.00 Fog/Mist FEW042 BKN050 73.4 73.4 100% 29.92 0.0
05 05:35 SE 3 6.00 Fog/Mist FEW043 BKN050 75.2 75.2 100% 73 29.92 0.0
05 05:15 Calm 6.00 Fog/Mist NULL 73.4 73.4 100% 29.92 0.0
05 04:55 E 3 6.00 Fog/Mist FEW044 FEW050 75.2 75.2 100% 73 29.92 0.0
05 04:35 Calm 8.00 Partly Cloudy FEW046 SCT050 75.2 75.2 100% 73 29.91 0.0
05 04:15 Calm 7.00 Mostly Cloudy BKN048 BKN055 75.2 75.2 100% 73 29.91 0.0
05 03:55 Calm 8.00 Mostly Cloudy BKN049 75.2 75.2 100% 73 29.92 0.0
05 03:35 Calm 9.00 NULL NULL 75.2 75.2 100% 73 29.92 0.0
05 03:15 Calm 10.00 NULL NULL 75.2 75.2 100% 73 29.92 0.0
05 02:55 Calm 8.00 NULL NULL 75.2 75.2 100% 73 29.92 0.0
05 02:35 Calm 10.00 Mostly Cloudy FEW041 BKN047 75.2 75.2 100% 73 29.93 0.0
05 02:15 Calm 10.00 Partly Cloudy SCT047 75.2 75.2 100% 73 29.93 0.0
05 01:55 Calm 10.00 Partly Cloudy SCT048 77 75.2 94% 78 29.92 0.0
05 01:35 Calm 10.00 NULL NULL 75.2 75.2 100% 73 29.93 0.0
05 01:15 Calm 10.00 Mostly Cloudy BKN048 77 75.2 94% 78 29.93 0.0
05 00:55 S 3 10.00 Partly Cloudy SCT047 78.8 75.2 89% 82 29.92 0.0
05 00:35 S 5 10.00 Overcast OVC047 80.6 75.2 84% 86 29.92 0.0
05 00:15 Calm 10.00 Mostly Cloudy BKN045 78.8 77 94% 83 29.92 0.0
04 23:55 SE 3 10.00 Fair CLR 78.8 77 94% 83 29.91 0.0
04 23:35 Calm 10.00 A Few Clouds FEW046 77 77 100% 78 29.91 0.0
04 23:15 Calm 10.00 NULL NULL 78.8 77 94% 83 29.91 0.0
04 22:55 E 3 10.00 Fair CLR 78.8 77 94% 83 29.91 0.0
04 22:35 Calm 10.00 Fair CLR 78.8 77 94% 83 29.91 0.0
04 22:15 Calm 10.00 NULL NULL 78.8 77 94% 83 29.91 0.0
04 21:55 Calm 10.00 Fair CLR 78.8 77 94% 83 29.91 0.0
04 21:35 Calm 10.00 Fair CLR 80.6 77 89% 87 29.91 0.0
04 20:55 Calm 10.00 NULL NULL 82.4 77 84% 91 29.9 0.0
04 20:35 Calm 10.00 Fair CLR 80.6 77 89% 87 29.9 0.0
04 20:15 Calm 10.00 Fair CLR 80.6 78.8 94% 88 29.89 0.0
04 19:55 Calm 10.00 Fair CLR 84.2 78.8 84% 96 29.89 0.0
04 19:35 Calm 10.00 Fair CLR 86 77 75% 97 29.89 0.0
04 19:15 Calm 10.00 A Few Clouds FEW048 87.8 77 70% 100 29.89 0.0
04 18:55 Calm 10.00 A Few Clouds FEW048 89.6 77 67% 103 29.88 0.0
04 18:35 Calm 10.00 Fair CLR 89.6 77 67% 103 29.88 0.0
04 18:15 SW 5 10.00 Fair CLR 89.6 77 67% 103 29.88 0.0
04 17:55 W 6 10.00 Fair CLR 91.4 77 63% 105 29.88 0.0
04 17:35 Vrbl 3 10.00 Fair CLR 91.4 77 63% 105 29.87 0.0
04 17:15 SW 5 10.00 A Few Clouds FEW042 91.4 77 63% 105 29.87 0.0
04 16:55 SW 8 10.00 Partly Cloudy SCT039 91.4 77 63% 105 29.87 0.0
04 16:35 SW 9 G 15 10.00 Partly Cloudy SCT037 SCT043 91.4 77 63% 105 29.88 0.0
04 16:15 SW 6 G 13 10.00 A Few Clouds FEW039 91.4 77 63% 105 29.88 0.0
04 15:55 S 8 10.00 A Few Clouds FEW038 91.4 75.2 59% 103 29.88 0.0
04 15:35 Vrbl 6 G 13 10.00 A Few Clouds FEW036 91.4 77 63% 105 29.87 0.0
04 15:15 S 8 10.00 A Few Clouds FEW036 91.4 75.2 59% 103 29.87 0.0
04 14:55 Vrbl 6 10.00 Fair CLR 91.4 75.2 59% 103 29.87 0.0
04 14:35 SW 8 10.00 A Few Clouds FEW037 FEW110 89.6 75.2 63% 100 29.88 0.0
04 14:15 S 8 10.00 Mostly Cloudy FEW037 BKN110 89.6 75.2 63% 100 29.88 0.0
04 13:55 SW 6 10.00 Partly Cloudy FEW035 SCT110 87.8 75.2 66% 98 29.88 0.0
04 13:40 S 8 10.00 A Few Clouds FEW035 89.6 75.2 63% 100 29.89 0.0
04 13:15 Vrbl 7 10.00 Fair CLR 89.6 75.2 63% 100 29.89 0.0
04 12:55 S 8 10.00 Fair CLR 89.6 75.2 63% 100 29.89 0.0
04 12:35 Vrbl 5 G 14 10.00 Fair CLR 87.8 73.4 62% 96 29.89 0.0
04 12:15 SW 8 10.00 Fair CLR 87.8 75.2 66% 98 29.89 0.0
04 11:55 SW 10 10.00 Fair CLR 87.8 75.2 66% 98 29.9 0.0
04 11:35 SW 9 10.00 Fair CLR 86 75.2 70% 95 29.9 0.0
04 11:15 Calm 10.00 Fair CLR 86 75.2 70% 95 29.9 0.0
04 10:55 SW 9 10.00 Fair CLR 84.2 73.4 70% 91 29.89 0.0
04 10:35 SW 8 10.00 Fair CLR 84.2 73.4 70% 91 29.89 0.0
04 10:15 SW 6 G 14 10.00 Fair CLR 84.2 73.4 70% 91 29.88 0.0
04 09:55 SW 9 10.00 Fair CLR 82.4 71.6 70% 87 29.88 0.0
04 09:35 SW 8 G 15 10.00 Fair CLR 82.4 71.6 70% 87 29.88 0.0
04 09:15 Vrbl 5 10.00 Fair CLR 78.8 73.4 84% 82 29.89 0.0
04 08:55 SE 6 10.00 Fair CLR 77 71.6 83% 78 29.89 0.0
04 08:35 Calm 10.00 A Few Clouds FEW100 FEW120 73.4 71.6 94% 29.89 0.0
04 08:15 SE 5 10.00 Mostly Cloudy BKN100 BKN120 73.4 71.6 94% 29.89 0.0
04 07:55 S 6 10.00 A Few Clouds FEW100 73.4 69.8 89% 29.88 0.0
04 07:35 Vrbl 5 10.00 Mostly Cloudy BKN100 75.2 69.8 83% 75 29.87 0.0
04 07:15 S 6 10.00 Overcast OVC095 75.2 69.8 83% 75 29.87 0.0
04 06:55 S 5 10.00 Mostly Cloudy BKN095 73.4 69.8 89% 29.87 0.0
04 06:35 Calm 10.00 Overcast OVC095 73.4 69.8 89% 29.87 0.0
04 06:15 S 3 10.00 NULL NULL 75.2 69.8 83% 75 29.87 0.0
04 05:55 SW 5 10.00 NULL NULL 75.2 69.8 83% 75 29.86 0.0
04 05:35 S 6 10.00 NULL NULL 75.2 69.8 83% 75 29.86 0.0
04 05:15 SW 6 10.00 NULL NULL 75.2 69.8 83% 75 29.86 0.0
04 04:55 S 6 10.00 NULL NULL 75.2 69.8 83% 75 29.86 0.0
04 04:15 S 5 10.00 Fair CLR 75.2 69.8 83% 75 29.86 0.0
04 03:55 Vrbl 5 10.00 NULL NULL 77 69.8 79% 79 29.86 0.0
04 03:35 Vrbl 3 10.00 NULL NULL 77 69.8 79% 79 29.85 0.0
04 03:15 S 3 10.00 NULL NULL 75.2 71.6 89% 75 29.85 0.0
04 02:55 Calm 10.00 Fair CLR 73.4 71.6 94% 29.85 0.0
04 02:35 Calm 10.00 Fair CLR 75.2 71.6 89% 75 29.85 0.0
04 02:15 S 3 10.00 Fair CLR 77 71.6 83% 78 29.85 0.0
04 01:55 Vrbl 5 10.00 Fair CLR 77 71.6 83% 78 29.85 0.0
04 01:35 Vrbl 5 0.00 Fair CLR 77 71.6 83% 78 29.85 0.0
04 01:15 S 5 10.00 Fair CLR 77 71.6 83% 78 29.85 0.0
04 00:55 S 6 10.00 NULL NULL 77 71.6 83% 78 29.85 0.0
04 00:35 S 5 10.00 NULL NULL 75.2 71.6 89% 75 29.85 0.0
04 00:15 S 6 10.00 Fair CLR 77 71.6 83% 78 29.85 0.0
03 23:55 S 5 10.00 Fair CLR 77 71.6 83% 78 29.85 0.0
03 23:35 Vrbl 5 10.00 Fair CLR 77 71.6 83% 78 29.85 0.0
03 23:15 S 5 10.00 NULL NULL 77 71.6 83% 78 29.85 0.0
03 22:55 S 6 10.00 NULL NULL 77 71.6 83% 78 29.85 0.0
03 22:35 S 5 10.00 Fair CLR 77 71.6 83% 78 29.85 0.0
03 22:15 S 3 10.00 NULL NULL 78.8 73.4 84% 82 29.85 0.0
03 21:55 S 5 10.00 NULL NULL 78.8 73.4 84% 82 29.85 0.0
03 21:35 S 5 10.00 NULL NULL 77 73.4 89% 78 29.84 0.0
03 21:15 Calm 10.00 NULL NULL 78.8 73.4 84% 82 29.84 0.0
03 20:55 S 5 10.00 Fair CLR 80.6 73.4 79% 85 29.83 0.0
03 20:35 S 3 10.00 Fair CLR 80.6 73.4 79% 85 29.82 0.0
03 20:15 S 6 10.00 Fair CLR 82.4 73.4 74% 88 29.82 0.0
03 19:55 S 6 10.00 Fair CLR 82.4 73.4 74% 88 29.81 0.0
03 19:35 Vrbl 6 10.00 Fair CLR 84.2 73.4 70% 91 29.81 0.0
03 19:15 S 5 G 12 10.00 Fair CLR 86 73.4 66% 93 29.81 0.0
03 18:55 S 6 10.00 Fair CLR 87.8 73.4 62% 96 29.81 0.0
03 18:35 S 7 10.00 Fair CLR 89.6 73.4 59% 98 29.81 0.0
03 18:15 Vrbl 6 10.00 Fair CLR 89.6 73.4 59% 98 29.81 0.0
03 17:55 S 9 10.00 Fair CLR 89.6 73.4 59% 98 29.81 0.0
03 17:35 S 8 G 15 10.00 Fair CLR 91.4 73.4 56% 100 29.81 0.0
03 17:15 S 10 10.00 Fair CLR 89.6 75.2 63% 100 29.81 0.0
03 16:55 SE 9 G 17 10.00 Fair CLR 89.6 77 67% 103 29.82 0.0
03 16:35 SE 10 10.00 Fair CLR 89.6 75.2 63% 100 29.83 0.0
03 16:15 SE 13 G 18 10.00 Fair CLR 87.8 75.2 66% 98 29.83 0.0
03 15:55 SE 13 G 18 10.00 Fair CLR 87.8 77 70% 100 29.83 0.0
03 15:35 SE 12 G 20 10.00 Fair CLR 86 75.2 70% 95 29.84 0.0
03 15:15 SE 14 10.00 Fair CLR 86 75.2 70% 95 29.85 0.0
03 14:55 SE 14 10.00 A Few Clouds FEW100 84.2 75.2 74% 92 29.86 0.0
03 14:35 SE 12 10.00 Partly Cloudy SCT100 82.4 75.2 79% 89 29.86 0.0
03 14:15 SE 12 G 17 10.00 Fair CLR 80.6 75.2 84% 86 29.87 0.0
03 13:55 SE 15 10.00 A Few Clouds FEW095 78.8 75.2 89% 82 29.88 0.0 0.13
03 13:35 E 12 8.00 Partly Cloudy FEW025 FEW044 SCT075 77 75.2 94% 78 29.89 0.0
03 13:15 E 7 4.00 Light Rain FEW039 SCT050 BKN095 75.2 75.2 100% 73 29.91 0.0
03 12:55 NE 9 0.00 NULL NULL 77 75.2 94% 78 29.9 0.0
03 12:35 N 7 8.00 Light Rain SCT070 BKN085 OVC110 78.8 75.2 89% 82 29.91 0.0
03 12:15 Calm 10.00 Mostly Cloudy BKN095 BKN110 78.8 75.2 89% 82 29.9 0.0
03 11:55 Calm 9.00 A Few Clouds FEW100 78.8 75.2 89% 82 29.91 0.0
03 11:35 SE 6 10.00 A Few Clouds FEW065 FEW095 FEW110 78.8 73.4 84% 82 29.91 0.0
03 11:15 E 5 10.00 Fair CLR 77 73.4 89% 78 29.89 0.0
03 10:35 SE 5 10.00 Fair CLR 75.2 73.4 94% 74 29.91 0.0
03 10:15 SE 6 10.00 Fair CLR 75.2 73.4 94% 74 29.91 0.0
03 09:55 SE 6 10.00 Fair CLR 75.2 71.6 89% 75 29.9 0.0
03 09:35 SE 6 10.00 Fair CLR 75.2 71.6 89% 75 29.91 0.0
03 09:15 SE 8 10.00 Fair CLR 77 71.6 83% 78 29.9 0.0
03 08:55 SE 6 10.00 Fair CLR 77 71.6 83% 78 29.89 0.0
03 08:35 SE 7 10.00 Fair CLR 75.2 71.6 89% 75 29.9 0.0
03 08:15 E 6 10.00 Fair CLR 75.2 71.6 89% 75 29.9 0.0
03 07:55 Calm 10.00 Fair CLR 75.2 71.6 89% 75 29.91 0.0
03 07:35 E 3 10.00 Fair CLR 73.4 71.6 94% 29.9 0.0
03 07:15 E 5 10.00 Fair CLR 73.4 71.6 94% 29.9 0.0
03 06:55 E 5 10.00 A Few Clouds FEW075 FEW100 FEW120 73.4 69.8 89% 29.89 0.0
03 06:35 N 5 10.00 NULL NULL 73.4 69.8 89% 29.89 0.0
03 06:15 N 9 G 15 10.00 NULL NULL 75.2 69.8 83% 75 29.89 0.0
03 05:55 SW 5 10.00 NULL NULL 75.2 69.8 83% 75 29.87 0.0
03 05:35 SW 6 10.00 NULL NULL 77 68 74% 79 29.86 0.0
03 05:15 S 5 10.00 NULL NULL 75.2 69.8 83% 75 29.85 0.0
03 04:55 SW 6 10.00 NULL NULL 75.2 69.8 83% 75 29.85 0.0
03 04:35 S 5 10.00 Fair CLR 75.2 69.8 83% 75 29.85 0.0
03 04:15 SW 5 10.00 Fair CLR 75.2 69.8 83% 75 29.85 0.0
03 03:55 S 5 10.00 Fair CLR 75.2 69.8 83% 75 29.85 0.0
03 03:35 S 7 10.00 NULL NULL 75.2 69.8 83% 75 29.84 0.0
03 03:15 S 5 10.00 NULL NULL 75.2 69.8 83% 75 29.84 0.0
03 02:55 S 5 10.00 Fair CLR 77 69.8 79% 79 29.84 0.0
03 02:35 S 6 10.00 Fair CLR 77 69.8 79% 79 29.84 0.0
03 02:15 S 5 10.00 Fair CLR 77 69.8 79% 79 29.85 0.0
03 01:55 S 6 10.00 NULL NULL 78.8 69.8 74% 81 29.85 0.0
03 01:35 Vrbl 5 G 13 10.00 NULL NULL 78.8 69.8 74% 81 29.85 0.0
03 01:15 S 6 10.00 Fair CLR 78.8 69.8 74% 81 29.85 0.0
03 00:55 S 7 10.00 Fair CLR 80.6 69.8 70% 84 29.85 0.0
03 00:35 S 8 10.00 Fair CLR 80.6 69.8 70% 84 29.85 0.0
03 00:15 S 7 G 13 10.00 Fair CLR 80.6 69.8 70% 84 29.85 0.0
02 23:55 Vrbl 7 10.00 Fair CLR 78.8 71.6 79% 82 29.85 0.0
02 23:35 S 5 10.00 NULL NULL 78.8 71.6 79% 82 29.85 0.0
02 23:15 S 6 10.00 NULL NULL 78.8 71.6 79% 82 29.85 0.0
Date Time (cdt) Wind (mph) Vis. (mi.) Weather Sky Cond. Air Dwpt Max. Min. Relative Humidity Wind Chill (°F) Heat Index (°F) altimeter (in) sea level (mb) 1 hr 3 hr 6 hr
6 hour
Temperature (ºF) Pressure Precipitation (in)